sensor_id;sensor_type;location;lat;lon;timestamp;pressure;altitude;pressure_sealevel;temperature;humidity
50790;BME280;37287;47.554;7.844;2023-04-27T00:00:15;97891.53;;;8.61;100.00
50790;BME280;37287;47.554;7.844;2023-04-27T00:02:43;97905.72;;;8.58;100.00
50790;BME280;37287;47.554;7.844;2023-04-27T00:05:15;97899.91;;;8.56;100.00
50790;BME280;37287;47.554;7.844;2023-04-27T00:07:42;97911.91;;;8.58;100.00
50790;BME280;37287;47.554;7.844;2023-04-27T00:10:09;97902.59;;;8.56;100.00
50790;BME280;37287;47.554;7.844;2023-04-27T00:12:38;97899.47;;;8.54;100.00
50790;BME280;37287;47.554;7.844;2023-04-27T00:15:05;97898.72;;;8.53;100.00
50790;BME280;37287;47.554;7.844;2023-04-27T00:17:32;97899.91;;;8.56;100.00
50790;BME280;37287;47.554;7.844;2023-04-27T00:20:00;97903.44;;;8.60;100.00
50790;BME280;37287;47.554;7.844;2023-04-27T00:22:27;97905.31;;;8.56;100.00
50790;BME280;37287;47.554;7.844;2023-04-27T00:24:53;97908.84;;;8.60;100.00
50790;BME280;37287;47.554;7.844;2023-04-27T00:27:21;97906.16;;;8.60;100.00
50790;BME280;37287;47.554;7.844;2023-04-27T00:29:48;97906.91;;;8.60;100.00
50790;BME280;37287;47.554;7.844;2023-04-27T00:32:15;97906.50;;;8.58;100.00
50790;BME280;37287;47.554;7.844;2023-04-27T00:34:48;97910.34;;;8.57;100.00
50790;BME280;37287;47.554;7.844;2023-04-27T00:37:14;97906.88;;;8.57;100.00
50790;BME280;37287;47.554;7.844;2023-04-27T00:39:41;97909.56;;;8.57;100.00
50790;BME280;37287;47.554;7.844;2023-04-27T00:42:11;97906.06;;;8.56;100.00
50790;BME280;37287;47.554;7.844;2023-04-27T00:44:40;97906.44;;;8.55;100.00
50790;BME280;37287;47.554;7.844;2023-04-27T00:47:07;97903.69;;;8.51;100.00
50790;BME280;37287;47.554;7.844;2023-04-27T00:49:35;97899.44;;;8.50;100.00
50790;BME280;37287;47.554;7.844;2023-04-27T00:52:03;97902.50;;;8.49;100.00
50790;BME280;37287;47.554;7.844;2023-04-27T00:54:30;97903.69;;;8.51;100.00
50790;BME280;37287;47.554;7.844;2023-04-27T00:56:57;97899.16;;;8.55;100.00
50790;BME280;37287;47.554;7.844;2023-04-27T00:59:24;97907.16;;;8.52;100.00
50790;BME280;37287;47.554;7.844;2023-04-27T01:01:51;97909.47;;;8.50;100.00
50790;BME280;37287;47.554;7.844;2023-04-27T01:04:22;97905.56;;;8.47;100.00
50790;BME280;37287;47.554;7.844;2023-04-27T01:06:49;97904.75;;;8.47;100.00
50790;BME280;37287;47.554;7.844;2023-04-27T01:09:16;97905.47;;;8.43;100.00
50790;BME280;37287;47.554;7.844;2023-04-27T01:11:46;97907.53;;;8.50;100.00
50790;BME280;37287;47.554;7.844;2023-04-27T01:14:15;97912.50;;;8.48;100.00
50790;BME280;37287;47.554;7.844;2023-04-27T01:16:42;97910.53;;;8.45;100.00
50790;BME280;37287;47.554;7.844;2023-04-27T01:19:09;97913.56;;;8.43;100.00
50790;BME280;37287;47.554;7.844;2023-04-27T01:21:36;97908.94;;;8.44;100.00
50790;BME280;37287;47.554;7.844;2023-04-27T01:24:06;97905.47;;;8.43;100.00
50790;BME280;37287;47.554;7.844;2023-04-27T01:26:34;97910.09;;;8.43;100.00
50790;BME280;37287;47.554;7.844;2023-04-27T01:29:01;97917.38;;;8.42;100.00
50790;BME280;37287;47.554;7.844;2023-04-27T01:31:28;97915.03;;;8.41;100.00
50790;BME280;37287;47.554;7.844;2023-04-27T01:33:54;97910.00;;;8.39;100.00
50790;BME280;37287;47.554;7.844;2023-04-27T01:36:24;97915.41;;;8.39;100.00
50790;BME280;37287;47.554;7.844;2023-04-27T01:38:53;97913.50;;;8.40;100.00
50790;BME280;37287;47.554;7.844;2023-04-27T01:41:21;97917.75;;;8.41;100.00
50790;BME280;37287;47.554;7.844;2023-04-27T01:43:49;97920.06;;;8.42;100.00
50790;BME280;37287;47.554;7.844;2023-04-27T01:46:18;97922.78;;;8.42;100.00
50790;BME280;37287;47.554;7.844;2023-04-27T01:48:51;97917.34;;;8.39;100.00
50790;BME280;37287;47.554;7.844;2023-04-27T01:51:17;97914.28;;;8.40;100.00
50790;BME280;37287;47.554;7.844;2023-04-27T01:53:44;97919.25;;;8.38;100.00
50790;BME280;37287;47.554;7.844;2023-04-27T01:56:12;97919.31;;;8.42;100.00
50790;BME280;37287;47.554;7.844;2023-04-27T01:58:39;97922.44;;;8.44;100.00
50790;BME280;37287;47.554;7.844;2023-04-27T02:01:05;97921.66;;;8.43;100.00
50790;BME280;37287;47.554;7.844;2023-04-27T02:03:33;97918.53;;;8.41;100.00
50790;BME280;37287;47.554;7.844;2023-04-27T02:06:00;97920.06;;;8.42;100.00
50790;BME280;37287;47.554;7.844;2023-04-27T02:08:29;97922.00;;;8.42;100.00
50790;BME280;37287;47.554;7.844;2023-04-27T02:11:02;97922.72;;;8.39;100.00
50790;BME280;37287;47.554;7.844;2023-04-27T02:13:29;97913.50;;;8.40;100.00
50790;BME280;37287;47.554;7.844;2023-04-27T02:15:55;97915.41;;;8.39;100.00
50790;BME280;37287;47.554;7.844;2023-04-27T02:18:26;97919.66;;;8.40;100.00
50790;BME280;37287;47.554;7.844;2023-04-27T02:20:54;97919.41;;;8.46;100.00
50790;BME280;37287;47.554;7.844;2023-04-27T02:23:21;97914.00;;;8.46;100.00
50790;BME280;37287;47.554;7.844;2023-04-27T02:25:48;97910.97;;;8.47;100.00
50790;BME280;37287;47.554;7.844;2023-04-27T02:28:16;97909.28;;;8.42;100.00
50790;BME280;37287;47.554;7.844;2023-04-27T02:30:43;97909.75;;;8.45;100.00
50790;BME280;37287;47.554;7.844;2023-04-27T02:33:10;97912.09;;;8.46;100.00
50790;BME280;37287;47.554;7.844;2023-04-27T02:35:37;97903.88;;;8.42;100.00
50790;BME280;37287;47.554;7.844;2023-04-27T02:38:03;97903.88;;;8.42;100.00
50790;BME280;37287;47.554;7.844;2023-04-27T02:40:32;97904.22;;;8.37;100.00
50790;BME280;37287;47.554;7.844;2023-04-27T02:42:58;97915.00;;;8.37;100.00
50790;BME280;37287;47.554;7.844;2023-04-27T02:45:25;97908.47;;;8.38;100.00
50790;BME280;37287;47.554;7.844;2023-04-27T02:47:53;97904.63;;;8.39;100.00
50790;BME280;37287;47.554;7.844;2023-04-27T02:50:22;97913.06;;;8.38;100.00
50790;BME280;37287;47.554;7.844;2023-04-27T02:52:49;97911.09;;;8.35;100.00
50790;BME280;37287;47.554;7.844;2023-04-27T02:55:16;97911.81;;;8.32;100.00
50790;BME280;37287;47.554;7.844;2023-04-27T02:57:42;97909.16;;;8.35;100.00
50790;BME280;37287;47.554;7.844;2023-04-27T03:00:10;97907.47;;;8.27;100.00
50790;BME280;37287;47.554;7.844;2023-04-27T03:02:43;97907.06;;;8.25;100.00
50790;BME280;37287;47.554;7.844;2023-04-27T03:05:10;97909.06;;;8.28;100.00
50790;BME280;37287;47.554;7.844;2023-04-27T03:07:36;97902.53;;;8.29;100.00
50790;BME280;37287;47.554;7.844;2023-04-27T03:10:05;97910.63;;;8.29;100.00
50790;BME280;37287;47.554;7.844;2023-04-27T03:12:33;97901.28;;;8.23;100.00
50790;BME280;37287;47.554;7.844;2023-04-27T03:14:59;97903.13;;;8.19;100.00
50790;BME280;37287;47.554;7.844;2023-04-27T03:17:30;97909.56;;;8.14;100.00
50790;BME280;37287;47.554;7.844;2023-04-27T03:19:57;97907.31;;;8.16;100.00
50790;BME280;37287;47.554;7.844;2023-04-27T03:22:24;97916.50;;;8.12;100.00
50790;BME280;37287;47.554;7.844;2023-04-27T03:24:50;97907.25;;;8.13;100.00
50790;BME280;37287;47.554;7.844;2023-04-27T03:27:17;97895.59;;;8.08;100.00
50790;BME280;37287;47.554;7.844;2023-04-27T03:29:43;97912.16;;;8.07;100.00
50790;BME280;37287;47.554;7.844;2023-04-27T03:32:10;97907.09;;;8.05;100.00
50790;BME280;37287;47.554;7.844;2023-04-27T03:34:37;97920.22;;;8.07;100.00
50790;BME280;37287;47.554;7.844;2023-04-27T03:37:03;97916.34;;;8.04;100.00
50790;BME280;37287;47.554;7.844;2023-04-27T03:39:30;97918.53;;;7.99;100.00
50790;BME280;37287;47.554;7.844;2023-04-27T03:41:57;97917.28;;;7.92;100.00
50790;BME280;37287;47.554;7.844;2023-04-27T03:44:24;97922.63;;;7.89;100.00
50790;BME280;37287;47.554;7.844;2023-04-27T03:46:54;97924.88;;;7.87;100.00
50790;BME280;37287;47.554;7.844;2023-04-27T03:49:25;97919.06;;;7.85;100.00
50790;BME280;37287;47.554;7.844;2023-04-27T03:51:53;97925.16;;;7.82;100.00
50790;BME280;37287;47.554;7.844;2023-04-27T03:54:21;97928.66;;;7.82;100.00
50790;BME280;37287;47.554;7.844;2023-04-27T03:56:47;97917.88;;;7.82;100.00
50790;BME280;37287;47.554;7.844;2023-04-27T03:59:17;97913.59;;;7.81;100.00
50790;BME280;37287;47.554;7.844;2023-04-27T04:01:45;97923.97;;;7.79;100.00
50790;BME280;37287;47.554;7.844;2023-04-27T04:04:11;97924.75;;;7.80;100.00
50790;BME280;37287;47.554;7.844;2023-04-27T04:06:38;97925.44;;;7.77;100.00
50790;BME280;37287;47.554;7.844;2023-04-27T04:09:05;97926.66;;;7.79;100.00
50790;BME280;37287;47.554;7.844;2023-04-27T04:11:32;97924.75;;;7.80;100.00
50790;BME280;37287;47.554;7.844;2023-04-27T04:13:59;97935.53;;;7.80;100.00
50790;BME280;37287;47.554;7.844;2023-04-27T04:16:27;97937.38;;;7.75;100.00
50790;BME280;37287;47.554;7.844;2023-04-27T04:18:53;97930.41;;;7.74;100.00
50790;BME280;37287;47.554;7.844;2023-04-27T04:21:20;97938.50;;;7.74;100.00
50790;BME280;37287;47.554;7.844;2023-04-27T04:23:53;97929.28;;;7.75;100.00
50790;BME280;37287;47.554;7.844;2023-04-27T04:26:20;97930.84;;;7.77;100.00
50790;BME280;37287;47.554;7.844;2023-04-27T04:28:48;97923.97;;;7.79;100.00
50790;BME280;37287;47.554;7.844;2023-04-27T04:31:15;97931.25;;;7.79;100.00
50790;BME280;37287;47.554;7.844;2023-04-27T04:33:43;97935.09;;;7.78;100.00
50790;BME280;37287;47.554;7.844;2023-04-27T04:36:10;97935.03;;;7.74;100.00
50790;BME280;37287;47.554;7.844;2023-04-27T04:38:38;97931.91;;;7.72;100.00
50790;BME280;37287;47.554;7.844;2023-04-27T04:41:05;97935.31;;;7.69;100.00
50790;BME280;37287;47.554;7.844;2023-04-27T04:43:32;97926.44;;;7.68;100.00
50790;BME280;37287;47.554;7.844;2023-04-27T04:46:05;97927.22;;;7.69;100.00
50790;BME280;37287;47.554;7.844;2023-04-27T04:48:32;97938.78;;;7.69;100.00
50790;BME280;37287;47.554;7.844;2023-04-27T04:50:59;97928.78;;;7.70;100.00
50790;BME280;37287;47.554;7.844;2023-04-27T04:53:28;97938.84;;;7.73;100.00
50790;BME280;37287;47.554;7.844;2023-04-27T04:56:12;97941.97;;;7.75;100.00
50790;BME280;37287;47.554;7.844;2023-04-27T04:58:40;97930.84;;;7.77;100.00
50790;BME280;37287;47.554;7.844;2023-04-27T05:01:07;97935.88;;;7.78;100.00
50790;BME280;37287;47.554;7.844;2023-04-27T05:03:34;97935.53;;;7.80;100.00
50790;BME280;37287;47.554;7.844;2023-04-27T05:06:03;97947.16;;;7.84;100.00
50790;BME280;37287;47.554;7.844;2023-04-27T05:08:29;97953.03;;;7.89;100.00
50790;BME280;37287;47.554;7.844;2023-04-27T05:10:56;97957.78;;;7.96;100.00
50790;BME280;37287;47.554;7.844;2023-04-27T05:13:26;97958.69;;;8.04;100.00
50790;BME280;37287;47.554;7.844;2023-04-27T05:15:55;97956.56;;;8.13;100.00
50790;BME280;37287;47.554;7.844;2023-04-27T05:18:24;97947.81;;;8.20;100.00
50790;BME280;37287;47.554;7.844;2023-04-27T05:20:52;97948.25;;;8.22;100.00
50790;BME280;37287;47.554;7.844;2023-04-27T05:23:19;97942.06;;;8.21;100.00
50790;BME280;37287;47.554;7.844;2023-04-27T05:25:46;97950.59;;;8.23;100.00
50790;BME280;37287;47.554;7.844;2023-04-27T05:28:18;97952.22;;;8.28;100.00
50790;BME280;37287;47.554;7.844;2023-04-27T05:30:46;97959.72;;;8.38;100.00
50790;BME280;37287;47.554;7.844;2023-04-27T05:33:12;97950.22;;;8.45;100.00
50790;BME280;37287;47.554;7.844;2023-04-27T05:35:39;97959.16;;;8.49;100.00
50790;BME280;37287;47.554;7.844;2023-04-27T05:38:05;97952.31;;;8.55;100.00
50790;BME280;37287;47.554;7.844;2023-04-27T05:40:32;97952.50;;;8.66;100.00
50790;BME280;37287;47.554;7.844;2023-04-27T05:42:59;97954.59;;;8.76;100.00
50790;BME280;37287;47.554;7.844;2023-04-27T05:45:30;97953.41;;;9.00;100.00
50790;BME280;37287;47.554;7.844;2023-04-27T05:47:58;97957.53;;;9.17;100.00
50790;BME280;37287;47.554;7.844;2023-04-27T05:50:27;97957.38;;;9.33;100.00
50790;BME280;37287;47.554;7.844;2023-04-27T05:52:54;97951.97;;;9.33;100.00
50790;BME280;37287;47.554;7.844;2023-04-27T05:55:20;97959.72;;;9.35;100.00
50790;BME280;37287;47.554;7.844;2023-04-27T05:57:49;97966.25;;;9.34;100.00
50790;BME280;37287;47.554;7.844;2023-04-27T06:00:33;97964.69;;;9.33;100.00
50790;BME280;37287;47.554;7.844;2023-04-27T06:03:03;97956.56;;;9.29;100.00
50790;BME280;37287;47.554;7.844;2023-04-27T06:05:32;97961.59;;;9.31;100.00
50790;BME280;37287;47.554;7.844;2023-04-27T06:07:59;97962.34;;;9.31;100.00
50790;BME280;37287;47.554;7.844;2023-04-27T06:10:28;97967.75;;;9.31;100.00
50790;BME280;37287;47.554;7.844;2023-04-27T06:12:55;97971.59;;;9.30;100.00
50790;BME280;37287;47.554;7.844;2023-04-27T06:15:22;97973.16;;;9.31;100.00
50790;BME280;37287;47.554;7.844;2023-04-27T06:17:48;97977.06;;;9.34;100.00
50790;BME280;37287;47.554;7.844;2023-04-27T06:20:15;97982.56;;;9.41;100.00
50790;BME280;37287;47.554;7.844;2023-04-27T06:22:42;97981.16;;;9.51;100.00
50790;BME280;37287;47.554;7.844;2023-04-27T06:25:10;97985.16;;;9.60;100.00
50790;BME280;37287;47.554;7.844;2023-04-27T06:27:37;97986.09;;;9.75;100.00
50790;BME280;37287;47.554;7.844;2023-04-27T06:30:04;97989.25;;;9.81;100.00
50790;BME280;37287;47.554;7.844;2023-04-27T06:32:30;97983.13;;;9.84;100.00
50790;BME280;37287;47.554;7.844;2023-04-27T06:34:57;97994.81;;;9.92;100.00
50790;BME280;37287;47.554;7.844;2023-04-27T06:37:24;97993.34;;;9.98;100.00
50790;BME280;37287;47.554;7.844;2023-04-27T06:39:51;97987.97;;;10.02;100.00
50790;BME280;37287;47.554;7.844;2023-04-27T06:42:17;97995.78;;;10.10;100.00
50790;BME280;37287;47.554;7.844;2023-04-27T06:44:44;98001.66;;;10.16;100.00
50790;BME280;37287;47.554;7.844;2023-04-27T06:47:11;98000.28;;;10.29;100.00
50790;BME280;37287;47.554;7.844;2023-04-27T06:49:39;98008.50;;;10.40;100.00
50790;BME280;37287;47.554;7.844;2023-04-27T06:52:06;98002.47;;;10.54;100.00
50790;BME280;37287;47.554;7.844;2023-04-27T06:54:34;98003.41;;;10.73;100.00
50790;BME280;37287;47.554;7.844;2023-04-27T06:57:01;98009.34;;;10.86;100.00
50790;BME280;37287;47.554;7.844;2023-04-27T06:59:30;98000.94;;;10.98;100.00
50790;BME280;37287;47.554;7.844;2023-04-27T07:02:04;98013.09;;;11.18;100.00
50790;BME280;37287;47.554;7.844;2023-04-27T07:04:33;98006.13;;;11.21;100.00
50790;BME280;37287;47.554;7.844;2023-04-27T07:07:00;98006.13;;;11.17;99.76
50790;BME280;37287;47.554;7.844;2023-04-27T07:09:27;98008.16;;;11.31;100.00
50790;BME280;37287;47.554;7.844;2023-04-27T07:11:54;98006.19;;;11.28;100.00
50790;BME280;37287;47.554;7.844;2023-04-27T07:14:22;98003.06;;;11.26;100.00
50790;BME280;37287;47.554;7.844;2023-04-27T07:16:54;98007.13;;;11.58;100.00
50790;BME280;37287;47.554;7.844;2023-04-27T07:19:21;98006.34;;;12.27;99.37
50790;BME280;37287;47.554;7.844;2023-04-27T07:21:48;98014.59;;;12.96;95.54
50790;BME280;37287;47.554;7.844;2023-04-27T07:24:15;98009.13;;;13.53;92.34
50790;BME280;37287;47.554;7.844;2023-04-27T07:26:42;98000.47;;;13.95;89.40
50790;BME280;37287;47.554;7.844;2023-04-27T07:29:10;98000.28;;;14.34;87.10
50790;BME280;37287;47.554;7.844;2023-04-27T07:31:53;97998.91;;;14.75;83.01
50790;BME280;37287;47.554;7.844;2023-04-27T07:34:23;98001.81;;;14.99;80.31
50790;BME280;37287;47.554;7.844;2023-04-27T07:37:06;97995.31;;;14.82;79.58
50790;BME280;37287;47.554;7.844;2023-04-27T07:39:33;97990.25;;;15.29;81.74
50790;BME280;37287;47.554;7.844;2023-04-27T07:42:02;97993.03;;;15.63;78.85
50790;BME280;37287;47.554;7.844;2023-04-27T07:44:29;97986.28;;;15.37;78.42
50790;BME280;37287;47.554;7.844;2023-04-27T07:46:56;97989.53;;;15.25;79.07
50790;BME280;37287;47.554;7.844;2023-04-27T07:49:24;97984.81;;;14.84;79.71
50790;BME280;37287;47.554;7.844;2023-04-27T07:51:51;97979.81;;;14.75;77.56
50790;BME280;37287;47.554;7.844;2023-04-27T07:54:18;97969.88;;;14.43;82.12
50790;BME280;37287;47.554;7.844;2023-04-27T07:56:44;97973.56;;;14.74;79.01
50790;BME280;37287;47.554;7.844;2023-04-27T07:59:11;97970.25;;;15.01;79.16
50790;BME280;37287;47.554;7.844;2023-04-27T08:01:40;97970.53;;;15.52;76.60
50790;BME280;37287;47.554;7.844;2023-04-27T08:04:09;97980.66;;;15.55;78.30
50790;BME280;37287;47.554;7.844;2023-04-27T08:06:40;97979.59;;;15.45;76.44
50790;BME280;37287;47.554;7.844;2023-04-27T08:09:07;97976.22;;;15.30;74.70
50790;BME280;37287;47.554;7.844;2023-04-27T08:12:00;97981.13;;;15.05;76.91
50790;BME280;37287;47.554;7.844;2023-04-27T08:14:37;97980.59;;;14.75;77.54
50790;BME280;37287;47.554;7.844;2023-04-27T08:17:05;97976.00;;;14.65;78.04
50790;BME280;37287;47.554;7.844;2023-04-27T08:19:32;97972.09;;;14.66;79.36
50790;BME280;37287;47.554;7.844;2023-04-27T08:21:59;97968.94;;;14.71;77.42
50790;BME280;37287;47.554;7.844;2023-04-27T08:24:26;97969.72;;;14.72;78.33
50790;BME280;37287;47.554;7.844;2023-04-27T08:26:53;97965.75;;;14.80;77.94
50790;BME280;37287;47.554;7.844;2023-04-27T08:29:19;97966.81;;;14.93;77.03
50790;BME280;37287;47.554;7.844;2023-04-27T08:31:55;97968.06;;;14.85;76.91
50790;BME280;37287;47.554;7.844;2023-04-27T08:34:22;97966.59;;;14.73;77.13
50790;BME280;37287;47.554;7.844;2023-04-27T08:36:49;97962.19;;;14.90;77.79
50790;BME280;37287;47.554;7.844;2023-04-27T08:39:16;97957.75;;;15.07;73.72
50790;BME280;37287;47.554;7.844;2023-04-27T08:41:45;97967.03;;;15.13;75.69
50790;BME280;37287;47.554;7.844;2023-04-27T08:44:12;97963.81;;;15.60;75.16
50790;BME280;37287;47.554;7.844;2023-04-27T08:46:38;97960.31;;;15.98;73.20
50790;BME280;37287;47.554;7.844;2023-04-27T08:49:05;97953.69;;;15.95;72.40
50790;BME280;37287;47.554;7.844;2023-04-27T08:51:35;97962.41;;;15.87;70.86
50790;BME280;37287;47.554;7.844;2023-04-27T08:54:03;97956.22;;;15.82;70.54
50790;BME280;37287;47.554;7.844;2023-04-27T08:56:32;97951.31;;;16.28;70.43
50790;BME280;37287;47.554;7.844;2023-04-27T08:58:59;97945.50;;;16.77;69.51
50790;BME280;37287;47.554;7.844;2023-04-27T09:01:27;97950.22;;;16.49;69.37
50790;BME280;37287;47.554;7.844;2023-04-27T09:03:58;97942.75;;;16.54;70.91
50790;BME280;37287;47.554;7.844;2023-04-27T09:06:32;97947.72;;;16.86;66.55
50790;BME280;37287;47.554;7.844;2023-04-27T09:09:02;97943.09;;;16.83;62.23
50790;BME280;37287;47.554;7.844;2023-04-27T09:11:34;97951.59;;;17.56;66.75
50790;BME280;37287;47.554;7.844;2023-04-27T09:14:15;97953.22;;;17.74;65.04
50790;BME280;37287;47.554;7.844;2023-04-27T09:16:56;97952.47;;;17.93;65.14
50790;BME280;37287;47.554;7.844;2023-04-27T09:19:50;97946.72;;;18.24;63.55
50790;BME280;37287;47.554;7.844;2023-04-27T09:22:21;97954.88;;;18.44;60.95
50790;BME280;37287;47.554;7.844;2023-04-27T09:24:52;97947.84;;;18.43;61.57
50790;BME280;37287;47.554;7.844;2023-04-27T09:27:19;97948.59;;;18.27;62.37
50790;BME280;37287;47.554;7.844;2023-04-27T09:29:48;97950.19;;;18.61;61.74
50790;BME280;37287;47.554;7.844;2023-04-27T09:32:16;97950.84;;;18.82;61.32
50790;BME280;37287;47.554;7.844;2023-04-27T09:34:46;97946.34;;;18.75;59.36
50790;BME280;37287;47.554;7.844;2023-04-27T09:37:15;97943.50;;;18.79;58.43
50790;BME280;37287;47.554;7.844;2023-04-27T09:39:42;97948.38;;;18.71;58.33
50790;BME280;37287;47.554;7.844;2023-04-27T09:42:10;97941.56;;;18.26;60.49
50790;BME280;37287;47.554;7.844;2023-04-27T09:44:42;97946.59;;;18.11;60.94
50790;BME280;37287;47.554;7.844;2023-04-27T09:47:09;97942.47;;;18.03;60.22
50790;BME280;37287;47.554;7.844;2023-04-27T09:49:36;97941.66;;;18.39;60.65
50790;BME280;37287;47.554;7.844;2023-04-27T09:52:05;97941.03;;;18.68;59.21
50790;BME280;37287;47.554;7.844;2023-04-27T09:54:33;97934.94;;;18.77;58.74
50790;BME280;37287;47.554;7.844;2023-04-27T10:00:02;97934.84;;;18.97;56.32
50790;BME280;37287;47.554;7.844;2023-04-27T10:03:19;97931.13;;;19.20;54.18
50790;BME280;37287;47.554;7.844;2023-04-27T10:06:21;97929.97;;;19.04;55.45
50790;BME280;37287;47.554;7.844;2023-04-27T10:08:57;97940.91;;;19.21;56.04
50790;BME280;37287;47.554;7.844;2023-04-27T10:11:40;97926.59;;;19.42;54.22
50790;BME280;37287;47.554;7.844;2023-04-27T10:14:08;97929.25;;;19.46;57.72
50790;BME280;37287;47.554;7.844;2023-04-27T10:16:58;97927.75;;;19.58;52.32
50790;BME280;37287;47.554;7.844;2023-04-27T10:19:26;97924.59;;;19.59;56.74
50790;BME280;37287;47.554;7.844;2023-04-27T10:22:00;97926.59;;;19.72;55.93
50790;BME280;37287;47.554;7.844;2023-04-27T10:24:41;97917.53;;;19.88;52.71
50790;BME280;37287;47.554;7.844;2023-04-27T10:27:15;97918.50;;;19.81;55.52
50790;BME280;37287;47.554;7.844;2023-04-27T10:29:45;97908.66;;;19.67;57.07
50790;BME280;37287;47.554;7.844;2023-04-27T10:32:32;97911.72;;;19.99;51.59
50790;BME280;37287;47.554;7.844;2023-04-27T10:35:04;97913.41;;;20.22;54.67
50790;BME280;37287;47.554;7.844;2023-04-27T10:37:38;97912.38;;;20.54;53.17
50790;BME280;37287;47.554;7.844;2023-04-27T10:40:10;97911.75;;;20.37;53.80
50790;BME280;37287;47.554;7.844;2023-04-27T10:42:43;97911.19;;;20.30;54.14
50790;BME280;37287;47.554;7.844;2023-04-27T10:45:11;97910.25;;;20.58;53.02
50790;BME280;37287;47.554;7.844;2023-04-27T10:47:43;97902.81;;;20.59;49.39
50790;BME280;37287;47.554;7.844;2023-04-27T10:50:12;97902.56;;;20.66;51.04
50790;BME280;37287;47.554;7.844;2023-04-27T10:52:41;97904.81;;;20.71;52.39
50790;BME280;37287;47.554;7.844;2023-04-27T10:55:19;97898.50;;;20.71;49.32
50790;BME280;37287;47.554;7.844;2023-04-27T10:57:52;97900.97;;;20.91;51.43
50790;BME280;37287;47.554;7.844;2023-04-27T11:00:25;97901.63;;;20.95;48.96
50790;BME280;37287;47.554;7.844;2023-04-27T11:02:56;97895.44;;;21.04;50.85
50790;BME280;37287;47.554;7.844;2023-04-27T11:05:25;97889.38;;;21.09;50.10
50790;BME280;37287;47.554;7.844;2023-04-27T11:08:13;97880.84;;;20.94;45.38
50790;BME280;37287;47.554;7.844;2023-04-27T11:10:45;97887.25;;;20.78;49.24
50790;BME280;37287;47.554;7.844;2023-04-27T11:13:14;97890.31;;;20.93;50.41
50790;BME280;37287;47.554;7.844;2023-04-27T11:15:57;97879.69;;;20.69;47.56
50790;BME280;37287;47.554;7.844;2023-04-27T11:18:29;97885.75;;;20.77;50.45
50790;BME280;37287;47.554;7.844;2023-04-27T11:23:38;97878.34;;;20.74;50.71
50790;BME280;37287;47.554;7.844;2023-04-27T11:26:16;97874.66;;;20.55;50.46
50790;BME280;37287;47.554;7.844;2023-04-27T11:31:26;97875.44;;;19.91;51.72
50790;BME280;37287;47.554;7.844;2023-04-27T11:33:53;97870.69;;;19.79;50.36
50790;BME280;37287;47.554;7.844;2023-04-27T11:36:22;97874.16;;;19.66;50.96
50790;BME280;37287;47.554;7.844;2023-04-27T11:38:49;97876.88;;;19.83;51.24
50790;BME280;37287;47.554;7.844;2023-04-27T11:41:20;97866.44;;;20.16;50.27
50790;BME280;37287;47.554;7.844;2023-04-27T11:43:50;97861.16;;;20.22;49.95
50790;BME280;37287;47.554;7.844;2023-04-27T11:46:20;97861.03;;;20.38;49.43
50790;BME280;37287;47.554;7.844;2023-04-27T11:48:48;97858.41;;;20.35;48.71
50790;BME280;37287;47.554;7.844;2023-04-27T11:51:14;97859.50;;;20.12;50.73
50790;BME280;37287;47.554;7.844;2023-04-27T11:53:41;97852.47;;;19.85;50.86
50790;BME280;37287;47.554;7.844;2023-04-27T11:56:09;97846.25;;;19.68;50.64
50790;BME280;37287;47.554;7.844;2023-04-27T11:58:37;97845.75;;;19.99;49.56
50790;BME280;37287;47.554;7.844;2023-04-27T12:01:05;97841.16;;;20.08;49.78
50790;BME280;37287;47.554;7.844;2023-04-27T12:03:36;97855.03;;;20.05;50.09
50790;BME280;37287;47.554;7.844;2023-04-27T12:06:03;97839.16;;;19.83;50.82
50790;BME280;37287;47.554;7.844;2023-04-27T12:08:50;97850.94;;;19.84;50.81
50790;BME280;37287;47.554;7.844;2023-04-27T12:11:19;97849.78;;;19.68;50.49
50790;BME280;37287;47.554;7.844;2023-04-27T12:13:46;97840.00;;;19.67;51.43
50790;BME280;37287;47.554;7.844;2023-04-27T12:16:19;97850.56;;;19.69;51.42
50790;BME280;37287;47.554;7.844;2023-04-27T12:18:50;97846.59;;;19.70;50.54
50790;BME280;37287;47.554;7.844;2023-04-27T12:21:17;97849.00;;;19.68;49.87
50790;BME280;37287;47.554;7.844;2023-04-27T12:23:47;97849.00;;;19.68;50.26
50790;BME280;37287;47.554;7.844;2023-04-27T12:26:16;97851.97;;;19.61;50.20
50790;BME280;37287;47.554;7.844;2023-04-27T12:28:42;97853.06;;;19.63;50.26
50790;BME280;37287;47.554;7.844;2023-04-27T12:31:14;97848.66;;;19.53;50.33
50790;BME280;37287;47.554;7.844;2023-04-27T12:33:41;97856.41;;;19.29;50.21
50790;BME280;37287;47.554;7.844;2023-04-27T12:36:10;97852.69;;;19.35;49.10
50790;BME280;37287;47.554;7.844;2023-04-27T12:38:39;97839.75;;;19.36;49.13
50790;BME280;37287;47.554;7.844;2023-04-27T12:41:05;97837.31;;;19.38;49.51
50790;BME280;37287;47.554;7.844;2023-04-27T12:43:32;97838.41;;;19.40;48.90
50790;BME280;37287;47.554;7.844;2023-04-27T12:46:00;97835.97;;;19.30;50.04
50790;BME280;37287;47.554;7.844;2023-04-27T12:48:29;97837.28;;;19.80;48.52
50790;BME280;37287;47.554;7.844;2023-04-27T12:50:56;97828.97;;;19.84;49.25
50790;BME280;37287;47.554;7.844;2023-04-27T12:53:24;97842.44;;;20.30;48.84
50790;BME280;37287;47.554;7.844;2023-04-27T12:55:51;97837.16;;;20.35;47.71
50790;BME280;37287;47.554;7.844;2023-04-27T12:58:18;97831.59;;;20.00;48.43
50790;BME280;37287;47.554;7.844;2023-04-27T13:00:47;97832.47;;;19.84;48.56
50790;BME280;37287;47.554;7.844;2023-04-27T13:03:16;97823.13;;;19.82;48.41
50790;BME280;37287;47.554;7.844;2023-04-27T13:05:43;97823.97;;;19.66;48.59
50790;BME280;37287;47.554;7.844;2023-04-27T13:08:15;97827.47;;;19.66;48.71
50790;BME280;37287;47.554;7.844;2023-04-27T13:10:41;97824.50;;;19.61;48.10
50790;BME280;37287;47.554;7.844;2023-04-27T13:13:10;97824.28;;;19.55;48.72
50790;BME280;37287;47.554;7.844;2023-04-27T13:15:39;97820.41;;;19.39;49.03
50790;BME280;37287;47.554;7.844;2023-04-27T13:18:05;97825.16;;;19.52;49.19